Time;durP1;ratioP1;P1;durP2;ratioP2;P2;SDS_P1;SDS_P2;PMS_P1;PMS_P2;Temp;Humidity;BMP_temperature;BMP_pressure;BME280_temperature;BME280_humidity;BME280_pressure;Samples;Min_cycle;Max_cycle;Signal;HPM_P1;HPM_P2
2024/02/25 00:00:24;;;;;;;3.00;2.17;;;3.10;99.90;;;;;;5032218;28;20228;-73
2024/02/25 00:03:10;;;;;;;5.20;2.33;;;3.00;99.90;;;;;;5030947;28;20309;-72
2024/02/25 00:05:56;;;;;;;4.70;2.65;;;2.90;99.90;;;;;;5032591;28;20301;-72
2024/02/25 00:08:42;;;;;;;3.80;2.40;;;3.00;99.90;;;;;;5036461;28;20615;-73
2024/02/25 00:11:27;;;;;;;3.50;2.30;;;3.10;99.90;;;;;;5032523;28;20239;-73
2024/02/25 00:14:13;;;;;;;3.42;2.53;;;3.10;99.90;;;;;;5031421;28;20244;-73
2024/02/25 00:17:00;;;;;;;5.80;2.50;;;3.20;99.90;;;;;;5028936;28;20261;-73
2024/02/25 00:19:46;;;;;;;4.25;2.33;;;3.10;99.90;;;;;;5031497;28;20273;-74
2024/02/25 00:22:31;;;;;;;3.97;2.75;;;3.00;99.90;;;;;;5031426;28;20210;-73
2024/02/25 00:25:17;;;;;;;3.65;3.22;;;3.10;99.90;;;;;;5033276;28;20692;-72
2024/02/25 00:28:03;;;;;;;3.65;2.75;;;3.20;99.90;;;;;;5030037;28;20231;-73
2024/02/25 00:30:49;;;;;;;7.40;3.10;;;3.10;99.90;;;;;;5029185;28;20209;-75
2024/02/25 00:33:36;;;;;;;6.47;3.42;;;3.00;99.90;;;;;;5027242;28;20565;-72
2024/02/25 00:36:21;;;;;;;9.52;4.10;;;3.00;99.90;;;;;;5029038;28;20229;-74
2024/02/25 00:39:07;;;;;;;6.50;3.50;;;3.10;99.90;;;;;;5020500;28;20263;-73
2024/02/25 00:41:55;;;;;;;6.07;3.70;;;3.10;99.90;;;;;;5027343;28;20715;-73
2024/02/25 00:44:43;;;;;;;7.50;4.15;;;3.00;99.90;;;;;;5023598;28;20217;-72
2024/02/25 00:47:28;;;;;;;5.85;3.15;;;2.90;99.90;;;;;;5025790;28;20244;-76
2024/02/25 00:50:15;;;;;;;8.48;4.50;;;2.80;99.90;;;;;;5029078;28;20247;-73
2024/02/25 00:53:01;;;;;;;8.60;5.20;;;2.70;99.90;;;;;;5029371;28;20841;-72
2024/02/25 00:55:47;;;;;;;7.28;4.45;;;2.70;99.90;;;;;;5031609;28;20828;-76
2024/02/25 00:58:35;;;;;;;7.10;4.22;;;2.70;99.90;;;;;;5027254;28;20316;-73
2024/02/25 01:01:20;;;;;;;12.40;4.65;;;2.70;99.90;;;;;;5026310;28;20685;-74
2024/02/25 01:04:06;;;;;;;11.52;5.20;;;2.60;99.90;;;;;;5027096;28;20221;-74
2024/02/25 01:06:53;;;;;;;8.32;3.70;;;2.70;99.90;;;;;;5026269;28;20348;-75
2024/02/25 01:09:38;;;;;;;6.72;3.92;;;2.80;99.90;;;;;;5026101;28;20337;-75
2024/02/25 01:12:24;;;;;;;6.90;2.92;;;2.80;99.90;;;;;;5027675;28;20201;-75
2024/02/25 01:15:10;;;;;;;5.05;3.58;;;2.80;99.90;;;;;;5025081;28;20205;-73
2024/02/25 01:17:56;;;;;;;4.50;2.80;;;2.80;99.90;;;;;;5025016;28;20201;-72
2024/02/25 01:20:41;;;;;;;5.57;3.63;;;2.90;99.90;;;;;;5026357;28;21244;-75
2024/02/25 01:23:28;;;;;;;5.20;2.83;;;2.90;99.90;;;;;;5030064;28;20201;-73
2024/02/25 01:26:14;;;;;;;5.45;3.35;;;2.70;99.90;;;;;;5019976;28;20264;-73
2024/02/25 01:28:59;;;;;;;3.35;2.70;;;2.70;99.90;;;;;;5033878;28;20209;-73
2024/02/25 01:31:46;;;;;;;6.00;2.80;;;2.70;99.90;;;;;;5026106;28;20264;-73
2024/02/25 01:34:31;;;;;;;4.55;2.90;;;2.70;99.90;;;;;;5031892;28;20206;-73
2024/02/25 01:37:17;;;;;;;3.85;2.70;;;2.70;99.90;;;;;;5028348;28;20728;-73
2024/02/25 01:40:05;;;;;;;5.07;2.67;;;2.80;99.90;;;;;;5019432;28;20724;-73
2024/02/25 01:43:09;;;;;;;4.60;2.85;;;2.80;99.90;;;;;;5023822;28;20263;-72
2024/02/25 01:45:54;;;;;;;3.95;2.83;;;2.90;99.90;;;;;;5034240;28;20244;-73
2024/02/25 01:48:41;;;;;;;3.97;2.33;;;2.90;99.90;;;;;;5027301;28;20206;-73
2024/02/25 01:51:27;;;;;;;3.60;2.50;;;3.10;99.90;;;;;;5028783;28;20206;-72
2024/02/25 01:54:13;;;;;;;3.40;2.38;;;3.10;99.90;;;;;;5022515;28;20202;-73
2024/02/25 01:57:00;;;;;;;3.72;3.10;;;3.00;99.90;;;;;;5025532;28;20260;-72
2024/02/25 01:59:46;;;;;;;3.45;2.40;;;3.00;99.90;;;;;;5021908;28;20331;-73
2024/02/25 02:02:32;;;;;;;6.55;3.03;;;3.10;99.90;;;;;;5024546;28;20273;-72
2024/02/25 02:05:18;;;;;;;3.80;2.55;;;3.10;99.90;;;;;;5024378;28;20241;-74
2024/02/25 02:08:04;;;;;;;4.55;2.90;;;3.10;99.90;;;;;;5029864;28;20304;-73
2024/02/25 02:10:50;;;;;;;4.90;2.60;;;3.00;99.90;;;;;;5015294;28;20202;-73
2024/02/25 02:13:37;;;;;;;3.95;2.03;;;3.00;99.90;;;;;;5023310;28;20276;-74
2024/02/25 02:16:24;;;;;;;5.15;2.58;;;3.00;99.90;;;;;;5025871;28;20245;-73
2024/02/25 02:19:10;;;;;;;4.50;2.22;;;3.00;99.90;;;;;;5026392;28;21243;-74
2024/02/25 02:21:58;;;;;;;3.00;2.03;;;3.00;99.90;;;;;;5018938;28;20220;-74
2024/02/25 02:24:43;;;;;;;4.70;2.00;;;3.10;99.90;;;;;;5025121;28;20241;-76
2024/02/25 02:27:29;;;;;;;2.25;1.60;;;3.10;99.90;;;;;;5027919;28;20228;-72
2024/02/25 02:30:15;;;;;;;3.10;1.70;;;3.10;99.90;;;;;;5024509;28;20237;-73
2024/02/25 02:33:00;;;;;;;2.50;1.45;;;3.20;99.90;;;;;;5023076;28;20209;-76
2024/02/25 02:35:46;;;;;;;3.72;2.13;;;3.30;99.90;;;;;;5023044;28;20300;-73
2024/02/25 02:38:33;;;;;;;4.03;2.13;;;3.40;99.90;;;;;;5023745;28;20201;-72
2024/02/25 02:41:23;;;;;;;5.25;2.05;;;3.40;99.90;;;;;;5022533;28;20791;-73
2024/02/25 02:44:08;;;;;;;5.75;2.25;;;3.40;99.90;;;;;;5022297;28;20237;-73
2024/02/25 02:46:54;;;;;;;2.40;1.65;;;3.40;99.90;;;;;;5025414;28;20229;-75
2024/02/25 02:49:40;;;;;;;3.08;1.80;;;3.50;99.90;;;;;;5022334;28;20208;-73
2024/02/25 02:52:25;;;;;;;2.53;1.60;;;3.50;99.90;;;;;;5022744;28;20218;-73
2024/02/25 02:55:12;;;;;;;2.40;1.80;;;3.50;99.90;;;;;;5023905;28;20695;-75
2024/02/25 02:57:58;;;;;;;2.05;1.63;;;3.50;99.90;;;;;;5021986;28;20267;-73
2024/02/25 03:00:44;;;;;;;3.22;2.15;;;3.60;99.90;;;;;;5024097;28;20216;-75
2024/02/25 03:03:29;;;;;;;2.90;1.88;;;3.70;99.90;;;;;;5025625;28;20208;-74
2024/02/25 03:06:15;;;;;;;3.83;2.35;;;3.80;99.90;;;;;;5026903;28;20292;-72
2024/02/25 03:09:01;;;;;;;6.03;1.95;;;3.90;99.90;;;;;;5024017;28;20221;-75
2024/02/25 03:11:48;;;;;;;2.60;1.73;;;3.90;99.90;;;;;;5024769;28;20209;-72
2024/02/25 03:14:34;;;;;;;2.60;1.80;;;3.80;99.90;;;;;;5025851;28;20207;-73
2024/02/25 03:17:20;;;;;;;2.35;1.48;;;3.90;99.90;;;;;;5022645;28;20298;-76
2024/02/25 03:20:07;;;;;;;2.65;1.40;;;4.00;99.90;;;;;;5023390;28;20243;-73
2024/02/25 03:22:53;;;;;;;3.00;1.95;;;3.90;99.90;;;;;;5021398;28;20239;-73
2024/02/25 03:25:38;;;;;;;2.08;1.58;;;4.00;99.90;;;;;;5023325;28;20226;-73
2024/02/25 03:28:26;;;;;;;2.17;1.60;;;4.10;99.90;;;;;;5029160;28;20210;-73
2024/02/25 03:31:12;;;;;;;3.83;1.98;;;4.10;99.90;;;;;;5023465;28;20257;-75
2024/02/25 03:33:57;;;;;;;8.90;1.35;;;4.10;99.90;;;;;;5033078;28;20572;-73
2024/02/25 03:36:43;;;;;;;3.97;1.55;;;4.10;99.90;;;;;;5026275;28;20288;-73
2024/02/25 03:39:28;;;;;;;2.53;1.63;;;4.20;99.90;;;;;;5021701;28;20202;-77
2024/02/25 03:42:14;;;;;;;2.50;1.67;;;4.20;99.90;;;;;;5029498;28;20245;-72
2024/02/25 03:45:01;;;;;;;2.38;1.73;;;4.30;99.90;;;;;;5029229;28;20721;-73
2024/02/25 03:47:48;;;;;;;3.17;1.42;;;4.30;99.90;;;;;;5025489;28;20225;-73
2024/02/25 03:50:34;;;;;;;2.28;1.27;;;4.30;99.90;;;;;;5028935;28;20234;-72
2024/02/25 03:53:19;;;;;;;2.65;1.75;;;4.30;99.90;;;;;;5026395;28;20205;-73
2024/02/25 03:56:05;;;;;;;2.38;1.63;;;4.30;99.90;;;;;;5029538;28;20356;-73
2024/02/25 03:58:51;;;;;;;2.42;1.42;;;4.30;99.90;;;;;;5027823;28;20255;-73
2024/02/25 04:01:38;;;;;;;2.45;1.70;;;4.40;99.90;;;;;;5028317;28;20245;-74
2024/02/25 04:04:24;;;;;;;4.00;1.30;;;4.40;99.90;;;;;;5032391;28;20233;-73
2024/02/25 04:07:10;;;;;;;2.63;1.55;;;4.40;99.90;;;;;;5032430;28;20570;-73
2024/02/25 04:09:56;;;;;;;2.33;1.45;;;4.40;99.90;;;;;;5025828;28;20338;-73
2024/02/25 04:12:42;;;;;;;2.42;1.30;;;4.40;99.90;;;;;;5027825;28;20251;-73
2024/02/25 04:15:27;;;;;;;5.45;2.10;;;4.40;99.90;;;;;;5032489;28;20218;-74
2024/02/25 04:18:15;;;;;;;3.77;1.60;;;4.40;99.90;;;;;;5028395;28;20230;-74
2024/02/25 04:21:01;;;;;;;2.65;1.65;;;4.40;99.90;;;;;;5028873;28;20533;-72
2024/02/25 04:23:47;;;;;;;3.22;1.70;;;4.40;99.90;;;;;;5028570;28;20206;-72
2024/02/25 04:26:33;;;;;;;1.95;1.52;;;4.30;99.90;;;;;;5030766;28;20230;-73
2024/02/25 04:29:19;;;;;;;2.50;1.30;;;4.40;99.90;;;;;;5028459;28;20564;-73
2024/02/25 04:32:05;;;;;;;3.55;1.80;;;4.40;99.90;;;;;;5024467;28;20601;-74
2024/02/25 04:34:52;;;;;;;3.28;1.70;;;4.30;99.90;;;;;;5031997;28;20265;-73
2024/02/25 04:37:37;;;;;;;4.57;1.50;;;4.30;99.90;;;;;;5028133;28;20297;-76
2024/02/25 04:40:25;;;;;;;2.65;1.80;;;4.30;99.90;;;;;;5024665;28;20226;-77
2024/02/25 04:43:10;;;;;;;4.90;1.48;;;4.40;99.90;;;;;;5029107;28;20344;-74
2024/02/25 04:45:56;;;;;;;2.38;1.40;;;4.40;99.90;;;;;;5028575;28;20242;-74
2024/02/25 04:48:42;;;;;;;4.18;1.48;;;4.40;99.90;;;;;;5030039;28;20915;-73
2024/02/25 04:51:29;;;;;;;2.85;1.65;;;4.40;99.90;;;;;;5029887;28;20594;-73
2024/02/25 04:54:15;;;;;;;6.80;1.63;;;4.50;99.90;;;;;;5026942;28;20202;-73
2024/02/25 04:57:01;;;;;;;4.28;1.33;;;4.60;99.90;;;;;;5028310;28;20221;-73
2024/02/25 04:59:47;;;;;;;3.13;1.70;;;4.60;99.90;;;;;;5032070;28;20222;-75
2024/02/25 05:02:33;;;;;;;2.25;1.45;;;4.60;99.90;;;;;;5028302;28;20206;-75
2024/02/25 05:05:19;;;;;;;8.10;2.05;;;4.70;99.90;;;;;;5031346;28;20245;-73
2024/02/25 05:08:06;;;;;;;3.22;1.40;;;4.70;99.90;;;;;;5025632;28;20190;-74
2024/02/25 05:10:52;;;;;;;2.15;1.70;;;4.70;99.90;;;;;;5022684;28;20260;-74
2024/02/25 05:13:38;;;;;;;2.80;1.60;;;4.80;99.90;;;;;;5027182;28;20213;-73
2024/02/25 05:16:24;;;;;;;2.30;1.63;;;4.80;99.90;;;;;;5029874;28;20349;-72
2024/02/25 05:19:10;;;;;;;3.05;1.70;;;4.90;99.90;;;;;;5027024;28;20210;-73
2024/02/25 05:21:56;;;;;;;6.88;1.85;;;5.00;99.90;;;;;;5029240;28;20747;-73
2024/02/25 05:24:44;;;;;;;2.35;1.52;;;5.10;99.90;;;;;;5028359;28;20332;-75
2024/02/25 05:27:35;;;;;;;2.03;1.42;;;5.20;99.90;;;;;;5062301;22;20319;-75
2024/02/25 05:30:21;;;;;;;2.78;1.20;;;5.40;99.90;;;;;;5040198;28;20247;-75
2024/02/25 05:33:07;;;;;;;2.38;0.85;;;5.70;99.90;;;;;;5043801;28;20256;-73
2024/02/25 05:35:53;;;;;;;3.05;1.10;;;6.00;99.90;;;;;;5037790;28;20600;-75
2024/02/25 05:38:39;;;;;;;2.25;1.20;;;6.30;99.90;;;;;;5022942;28;20587;-75
2024/02/25 05:41:26;;;;;;;1.92;1.13;;;6.50;99.90;;;;;;5022012;28;20262;-75
2024/02/25 05:44:12;;;;;;;2.20;1.23;;;6.60;99.90;;;;;;5023948;28;20760;-75
2024/02/25 05:46:58;;;;;;;2.50;1.30;;;6.70;99.90;;;;;;5021993;28;20489;-75
2024/02/25 05:49:44;;;;;;;1.92;1.30;;;6.80;99.90;;;;;;5024622;28;20208;-74
2024/02/25 05:52:29;;;;;;;2.78;1.50;;;6.80;99.90;;;;;;5023332;28;20289;-75
2024/02/25 05:55:17;;;;;;;3.45;1.60;;;6.70;99.90;;;;;;5021699;28;20201;-74
2024/02/25 05:58:05;;;;;;;2.90;1.70;;;6.70;99.90;;;;;;5017446;28;20993;-75
2024/02/25 06:00:51;;;;;;;3.63;2.08;;;6.60;99.90;;;;;;5019518;28;20233;-75
2024/02/25 06:03:36;;;;;;;2.20;1.40;;;6.60;99.90;;;;;;5023399;28;20213;-75
2024/02/25 06:06:22;;;;;;;10.07;1.83;;;6.50;99.90;;;;;;5019141;28;20373;-74
2024/02/25 06:09:10;;;;;;;5.37;1.80;;;6.50;99.90;;;;;;5022327;28;20270;-75
2024/02/25 06:11:56;;;;;;;3.97;1.95;;;6.40;99.90;;;;;;5023979;28;20443;-74
2024/02/25 06:14:43;;;;;;;2.47;1.50;;;6.50;99.90;;;;;;5017698;28;20293;-76
2024/02/25 06:17:29;;;;;;;2.87;1.60;;;6.50;99.90;;;;;;5020766;28;20238;-74
2024/02/25 06:20:15;;;;;;;2.60;1.60;;;6.50;99.90;;;;;;5021113;28;20444;-75
2024/02/25 06:23:01;;;;;;;2.30;1.50;;;6.60;99.90;;;;;;5021811;28;20263;-74
2024/02/25 06:25:46;;;;;;;4.10;1.88;;;6.60;99.90;;;;;;5021885;28;21199;-76
2024/02/25 06:28:32;;;;;;;3.07;1.87;;;6.50;99.90;;;;;;5018340;28;20238;-76
2024/02/25 06:31:19;;;;;;;2.57;1.80;;;6.50;99.90;;;;;;5018850;28;20462;-76
2024/02/25 06:34:04;;;;;;;3.43;2.00;;;6.50;99.90;;;;;;5018826;28;20471;-74
2024/02/25 06:36:51;;;;;;;3.17;1.30;;;6.50;99.90;;;;;;5020015;28;21218;-75
2024/02/25 06:39:36;;;;;;;3.42;1.65;;;6.40;99.90;;;;;;5020321;28;20631;-75
2024/02/25 06:42:22;;;;;;;3.35;1.77;;;6.40;99.90;;;;;;5021450;28;20205;-75
2024/02/25 06:45:09;;;;;;;2.97;1.80;;;6.40;99.90;;;;;;5020408;28;20281;-76
2024/02/25 06:47:56;;;;;;;5.13;2.03;;;6.40;99.90;;;;;;5020464;28;20282;-76
2024/02/25 06:50:42;;;;;;;2.45;1.80;;;6.40;99.90;;;;;;5019238;28;20226;-75
2024/02/25 06:53:27;;;;;;;6.90;1.70;;;6.40;99.90;;;;;;5017353;28;20297;-73
2024/02/25 06:56:13;;;;;;;2.40;1.55;;;6.40;99.90;;;;;;5020983;28;20679;-75
2024/02/25 06:58:59;;;;;;;3.10;1.85;;;6.30;99.90;;;;;;5021057;28;20219;-75
2024/02/25 07:01:44;;;;;;;3.70;2.00;;;6.30;99.90;;;;;;5017685;28;20222;-76
2024/02/25 07:04:31;;;;;;;5.20;1.70;;;6.30;99.90;;;;;;5021445;28;20444;-75
2024/02/25 07:07:17;;;;;;;3.10;2.10;;;6.20;99.90;;;;;;5018198;28;20472;-76
2024/02/25 07:10:03;;;;;;;3.00;1.83;;;6.20;99.90;;;;;;5019134;28;20529;-75
2024/02/25 07:12:48;;;;;;;2.88;1.80;;;6.20;99.90;;;;;;5017451;28;20646;-74
2024/02/25 07:15:34;;;;;;;3.25;1.50;;;6.30;99.90;;;;;;5020735;28;20213;-75
2024/02/25 07:18:20;;;;;;;6.28;3.80;;;6.20;99.90;;;;;;5014284;28;20293;-75
2024/02/25 07:21:08;;;;;;;3.17;2.40;;;6.20;99.90;;;;;;5020086;28;20265;-76
2024/02/25 07:23:53;;;;;;;12.77;9.97;;;6.20;99.90;;;;;;5018988;28;20467;-75
2024/02/25 07:26:39;;;;;;;15.82;12.32;;;6.20;99.90;;;;;;5018497;28;20622;-75
2024/02/25 07:29:24;;;;;;;8.83;5.90;;;6.10;99.90;;;;;;5022251;28;20215;-74
2024/02/25 07:32:10;;;;;;;8.70;6.20;;;6.20;99.90;;;;;;5019000;28;20462;-73
2024/02/25 07:34:57;;;;;;;7.68;6.03;;;6.20;99.90;;;;;;5019473;28;20460;-75
2024/02/25 07:37:48;;;;;;;5.00;3.88;;;6.20;99.90;;;;;;5023892;28;20589;-75
2024/02/25 07:40:33;;;;;;;6.57;4.78;;;6.30;99.90;;;;;;5023489;28;20721;-75
2024/02/25 07:43:19;;;;;;;5.57;3.42;;;6.20;99.90;;;;;;5022003;28;20341;-75
2024/02/25 07:46:06;;;;;;;5.40;2.20;;;6.30;99.90;;;;;;5019759;28;20251;-73
2024/02/25 07:48:51;;;;;;;6.20;3.73;;;6.40;99.90;;;;;;5018646;28;20445;-74
2024/02/25 07:51:37;;;;;;;7.82;4.75;;;6.40;99.90;;;;;;5022626;28;20464;-76
2024/02/25 07:54:25;;;;;;;5.10;2.40;;;6.50;99.90;;;;;;5022227;28;20212;-75
2024/02/25 07:57:11;;;;;;;5.72;2.50;;;6.60;99.90;;;;;;5017838;28;20518;-76
2024/02/25 07:59:57;;;;;;;3.53;2.60;;;6.60;99.90;;;;;;5019729;28;20220;-75
2024/02/25 08:02:43;;;;;;;5.90;2.73;;;6.70;99.90;;;;;;5020745;28;20589;-76
2024/02/25 08:05:29;;;;;;;3.55;3.10;;;6.80;99.90;;;;;;5022894;28;20951;-74
2024/02/25 08:08:15;;;;;;;4.15;2.58;;;6.80;99.90;;;;;;5018037;28;20212;-76
2024/02/25 08:11:02;;;;;;;3.78;2.10;;;6.80;99.90;;;;;;5018921;28;20991;-75
2024/02/25 08:13:47;;;;;;;3.38;2.20;;;6.90;99.90;;;;;;5021155;28;20214;-76
2024/02/25 08:16:35;;;;;;;3.93;2.43;;;7.00;99.90;;;;;;5022107;28;20231;-75
2024/02/25 08:19:21;;;;;;;10.43;2.23;;;7.00;99.90;;;;;;5022456;28;20473;-75
2024/02/25 08:22:07;;;;;;;5.07;2.23;;;7.00;99.90;;;;;;5020558;28;20452;-75
2024/02/25 08:24:52;;;;;;;2.67;2.00;;;7.10;99.90;;;;;;5016520;28;20732;-76
2024/02/25 08:27:40;;;;;;;3.73;2.00;;;7.10;99.90;;;;;;5017170;28;20549;-75
2024/02/25 08:30:25;;;;;;;2.65;1.83;;;7.10;99.90;;;;;;5019625;28;20460;-76
2024/02/25 08:33:11;;;;;;;5.78;2.20;;;7.10;99.90;;;;;;5020213;28;20211;-75
2024/02/25 08:35:57;;;;;;;2.90;1.90;;;7.20;99.90;;;;;;5018513;28;20573;-75
2024/02/25 08:38:43;;;;;;;6.03;1.83;;;7.30;99.90;;;;;;5018979;28;21088;-75
2024/02/25 08:41:29;;;;;;;3.07;1.63;;;7.30;99.90;;;;;;5019770;28;20493;-75
2024/02/25 08:44:16;;;;;;;3.20;1.60;;;7.40;99.90;;;;;;5015699;28;20969;-76
2024/02/25 08:47:01;;;;;;;3.63;1.53;;;7.50;99.90;;;;;;5019554;28;20559;-76
2024/02/25 08:49:47;;;;;;;3.17;1.48;;;7.70;99.90;;;;;;5018602;28;20441;-76
2024/02/25 08:52:32;;;;;;;2.90;1.23;;;7.80;99.90;;;;;;5018966;28;20274;-74
2024/02/25 08:55:18;;;;;;;3.57;1.30;;;7.90;99.90;;;;;;5021062;28;20533;-75
2024/02/25 08:58:04;;;;;;;2.43;1.53;;;8.00;99.90;;;;;;5013611;28;20476;-75
2024/02/25 09:00:51;;;;;;;2.73;1.60;;;8.10;99.90;;;;;;5020677;28;21005;-76
2024/02/25 09:03:37;;;;;;;3.53;1.50;;;8.20;99.90;;;;;;5022501;28;20458;-73
2024/02/25 09:06:23;;;;;;;3.40;1.23;;;8.30;99.90;;;;;;5018356;28;20723;-74
2024/02/25 09:09:09;;;;;;;1.80;1.27;;;8.30;99.90;;;;;;5019946;28;20532;-75
2024/02/25 09:11:55;;;;;;;2.83;1.30;;;8.50;99.90;;;;;;5019586;28;20449;-75
2024/02/25 09:14:40;;;;;;;2.97;1.43;;;8.50;99.90;;;;;;5018547;28;20453;-74
2024/02/25 09:17:27;;;;;;;2.63;1.60;;;8.60;99.90;;;;;;5018654;28;20530;-75
2024/02/25 09:20:13;;;;;;;2.90;1.83;;;8.60;99.90;;;;;;5017935;28;20566;-75
2024/02/25 09:23:01;;;;;;;2.27;1.47;;;8.50;99.90;;;;;;5020343;28;20461;-76
2024/02/25 09:25:46;;;;;;;2.00;1.60;;;8.40;99.90;;;;;;5017417;28;20442;-73
2024/02/25 09:28:32;;;;;;;3.03;1.80;;;8.30;99.90;;;;;;5018426;28;20485;-76
2024/02/25 09:31:19;;;;;;;2.70;1.60;;;8.10;99.90;;;;;;5017136;28;20456;-74
2024/02/25 09:34:06;;;;;;;3.00;1.80;;;8.10;99.90;;;;;;5021765;28;20463;-76
2024/02/25 09:36:52;;;;;;;3.10;1.30;;;8.10;99.90;;;;;;5018092;28;20467;-75
2024/02/25 09:39:37;;;;;;;2.73;1.60;;;8.10;99.90;;;;;;5019522;28;20427;-75
2024/02/25 09:42:23;;;;;;;2.40;1.33;;;8.20;99.90;;;;;;5012655;28;20456;-75
2024/02/25 09:45:19;;;;;;;3.10;1.30;;;8.30;99.90;;;;;;5015479;28;20575;-75
2024/02/25 09:48:05;;;;;;;4.47;2.27;;;8.30;99.90;;;;;;5018714;28;20622;-76
2024/02/25 09:50:54;;;;;;;5.10;1.60;;;8.40;99.90;;;;;;5017133;28;21758;-76
2024/02/25 09:53:40;;;;;;;3.00;1.20;;;8.60;99.90;;;;;;5019859;28;20516;-75
2024/02/25 09:56:26;;;;;;;2.57;1.67;;;8.90;99.90;;;;;;5017780;28;20488;-74
2024/02/25 09:59:12;;;;;;;5.93;1.27;;;9.20;99.90;;;;;;5017800;28;20508;-75
2024/02/25 10:01:57;;;;;;;4.07;1.50;;;9.50;99.90;;;;;;5016548;28;20453;-74
2024/02/25 10:04:44;;;;;;;4.47;1.60;;;9.50;99.90;;;;;;5019406;28;20983;-76
2024/02/25 10:07:32;;;;;;;2.53;1.60;;;9.50;99.90;;;;;;5014868;28;20493;-75
2024/02/25 10:10:17;;;;;;;1.67;0.97;;;9.60;99.90;;;;;;5013341;28;22599;-75
2024/02/25 10:13:05;;;;;;;4.00;2.20;;;9.60;99.90;;;;;;5016478;28;20830;-74
2024/02/25 10:15:59;;;;;;;3.77;1.77;;;9.30;99.90;;;;;;5014971;28;20472;-72
2024/02/25 10:18:46;;;;;;;2.80;1.30;;;9.30;99.90;;;;;;5020548;28;20458;-74
2024/02/25 10:21:32;;;;;;;3.27;1.80;;;9.50;99.90;;;;;;5014148;28;20462;-75
2024/02/25 10:24:29;;;;;;;2.40;1.70;;;9.80;98.80;;;;;;5019097;28;20454;-74
2024/02/25 10:27:15;;;;;;;2.63;1.27;;;9.90;96.40;;;;;;5017008;28;20690;-75
2024/02/25 10:30:05;;;;;;;2.40;1.03;;;10.00;97.10;;;;;;5018364;28;20479;-75
2024/02/25 10:32:50;;;;;;;2.30;1.07;;;9.90;98.40;;;;;;5018231;28;20550;-75
2024/02/25 10:35:36;;;;;;;5.67;1.60;;;9.90;95.60;;;;;;5019372;28;20559;-75
2024/02/25 10:38:23;;;;;;;2.50;1.20;;;10.00;96.80;;;;;;5021422;28;20541;-72
2024/02/25 10:41:11;;;;;;;3.10;1.40;;;10.00;97.10;;;;;;5014960;28;20492;-75
2024/02/25 10:44:02;;;;;;;2.60;1.50;;;10.00;95.40;;;;;;5019659;28;20459;-74
2024/02/25 10:46:53;;;;;;;2.80;1.30;;;9.90;96.20;;;;;;5016100;28;20490;-72
2024/02/25 10:49:39;;;;;;;2.53;0.97;;;9.70;97.10;;;;;;5016284;28;20455;-74
2024/02/25 10:52:27;;;;;;;2.23;1.23;;;9.70;95.80;;;;;;5012356;28;20578;-75
2024/02/25 10:55:14;;;;;;;1.70;0.90;;;9.70;96.70;;;;;;5018932;28;20456;-75
2024/02/25 10:58:01;;;;;;;3.73;0.97;;;9.80;96.40;;;;;;5012693;28;20466;-75
2024/02/25 11:00:48;;;;;;;2.73;1.27;;;10.10;94.20;;;;;;5017322;28;20930;-74
2024/02/25 11:03:34;;;;;;;7.00;1.30;;;10.00;90.00;;;;;;5012215;28;20479;-75
2024/02/25 11:06:30;;;;;;;2.33;1.00;;;9.90;92.50;;;;;;5016045;28;20475;-74
2024/02/25 11:09:16;;;;;;;2.00;1.00;;;9.90;94.20;;;;;;5012089;28;20468;-73
2024/02/25 11:12:24;;;;;;;1.90;1.10;;;9.90;94.10;;;;;;5014880;28;20990;-75
2024/02/25 11:15:20;;;;;;;1.53;0.80;;;9.90;96.50;;;;;;5015868;28;20910;-74
2024/02/25 11:18:08;;;;;;;2.40;1.00;;;9.90;94.40;;;;;;5016400;28;20570;-75
2024/02/25 11:21:05;;;;;;;2.13;1.00;;;10.20;93.70;;;;;;5017992;28;20982;-73
2024/02/25 11:23:51;;;;;;;1.63;0.90;;;10.70;92.30;;;;;;5016967;28;20493;-74
2024/02/25 11:26:37;;;;;;;1.70;0.80;;;10.90;86.50;;;;;;5014431;28;20482;-73
2024/02/25 11:29:24;;;;;;;2.13;1.00;;;11.00;82.50;;;;;;5014543;28;20966;-73
2024/02/25 11:32:11;;;;;;;2.17;0.97;;;11.30;78.50;;;;;;5013848;28;21009;-74
2024/02/25 11:34:59;;;;;;;4.83;1.13;;;11.30;74.30;;;;;;5014606;28;20489;-74
2024/02/25 11:37:49;;;;;;;2.43;1.10;;;10.90;76.50;;;;;;5015817;28;20708;-73
2024/02/25 11:40:35;;;;;;;2.13;0.83;;;10.80;79.50;;;;;;5015708;28;20562;-74
2024/02/25 11:43:22;;;;;;;5.80;1.00;;;10.50;76.20;;;;;;5015134;28;20430;-73
2024/02/25 11:46:09;;;;;;;1.80;1.10;;;10.40;80.10;;;;;;5014217;28;20467;-73
2024/02/25 11:48:56;;;;;;;1.33;0.60;;;10.30;79.20;;;;;;5013479;28;20455;-73
2024/02/25 11:51:44;;;;;;;2.07;0.90;;;10.30;85.00;;;;;;5016207;28;20455;-74
2024/02/25 11:54:31;;;;;;;1.53;0.83;;;10.20;83.90;;;;;;5017993;28;20478;-74
2024/02/25 11:57:17;;;;;;;2.53;1.43;;;10.20;80.40;;;;;;5014305;28;20471;-73
2024/02/25 12:00:04;;;;;;;2.73;0.80;;;10.10;81.90;;;;;;5017613;28;21007;-73
2024/02/25 12:02:50;;;;;;;1.80;0.90;;;10.10;82.70;;;;;;5014578;28;20602;-73
2024/02/25 12:05:37;;;;;;;1.47;0.70;;;10.10;79.90;;;;;;5015707;28;20932;-73
2024/02/25 12:08:23;;;;;;;2.63;1.07;;;10.00;82.50;;;;;;5013754;28;20506;-74
2024/02/25 12:11:08;;;;;;;2.10;1.03;;;10.00;84.20;;;;;;5019519;28;20458;-72
2024/02/25 12:14:02;;;;;;;3.30;0.90;;;10.00;81.10;;;;;;5022682;28;20543;-73
2024/02/25 12:16:48;;;;;;;2.83;1.63;;;10.00;84.70;;;;;;5017319;28;20841;-73
2024/02/25 12:19:35;;;;;;;6.07;2.53;;;10.10;80.40;;;;;;5017160;28;20621;-73
2024/02/25 12:22:26;;;;;;;2.30;0.87;;;10.40;81.40;;;;;;5017097;28;20585;-73
2024/02/25 12:25:17;;;;;;;1.50;0.80;;;10.60;80.80;;;;;;5018831;28;20447;-74
2024/02/25 12:28:10;;;;;;;2.70;0.77;;;10.70;80.60;;;;;;5016917;28;20557;-73
2024/02/25 12:30:56;;;;;;;1.73;0.83;;;10.60;75.30;;;;;;5015255;28;20463;-73
2024/02/25 12:33:41;;;;;;;1.40;0.80;;;10.50;73.50;;;;;;5021924;28;20452;-73
2024/02/25 12:36:27;;;;;;;1.87;0.90;;;10.30;73.70;;;;;;5017255;28;20493;-74
2024/02/25 12:39:18;;;;;;;1.70;0.90;;;10.30;78.10;;;;;;5020718;28;20443;-73
2024/02/25 12:42:05;;;;;;;1.80;0.90;;;10.30;78.10;;;;;;5017352;28;20459;-73
2024/02/25 12:44:51;;;;;;;1.90;1.00;;;10.40;78.60;;;;;;5015786;28;20504;-72
2024/02/25 12:47:36;;;;;;;1.30;0.70;;;10.50;76.70;;;;;;5017842;28;20560;-73
2024/02/25 12:50:22;;;;;;;1.77;0.97;;;10.80;76.40;;;;;;5018103;28;20545;-72
2024/02/25 12:53:08;;;;;;;3.17;1.30;;;11.00;71.80;;;;;;5018224;28;20451;-74
2024/02/25 12:55:55;;;;;;;3.37;1.10;;;11.10;72.00;;;;;;5018554;28;20448;-73
2024/02/25 12:58:42;;;;;;;3.73;0.90;;;11.20;75.30;;;;;;5020298;28;21197;-74
2024/02/25 13:01:27;;;;;;;3.57;1.70;;;11.30;73.40;;;;;;5017309;28;20467;-73
2024/02/25 13:04:14;;;;;;;8.57;4.20;;;11.30;72.80;;;;;;5019243;28;20542;-73
2024/02/25 13:06:59;;;;;;;5.30;2.20;;;11.30;68.00;;;;;;5015918;28;20533;-74
2024/02/25 13:09:45;;;;;;;1.90;0.90;;;11.30;66.60;;;;;;5014837;28;20493;-74
2024/02/25 13:12:32;;;;;;;2.70;0.83;;;11.20;64.50;;;;;;5023622;28;20433;-74
2024/02/25 13:15:18;;;;;;;2.10;0.80;;;11.10;66.80;;;;;;5025201;28;20872;-72
2024/02/25 13:18:05;;;;;;;2.50;0.97;;;11.00;65.50;;;;;;5025460;28;20463;-72
2024/02/25 13:20:51;;;;;;;2.33;1.17;;;11.00;67.30;;;;;;5019999;28;20455;-72
2024/02/25 13:23:37;;;;;;;1.70;0.80;;;11.10;66.90;;;;;;5024731;28;20443;-72
2024/02/25 13:26:22;;;;;;;2.17;0.90;;;11.20;64.70;;;;;;5022991;28;20893;-71
2024/02/25 13:29:12;;;;;;;2.00;0.80;;;11.30;64.10;;;;;;5021333;28;20479;-70
2024/02/25 13:31:57;;;;;;;2.03;0.83;;;11.30;65.10;;;;;;5021553;28;20451;-72
2024/02/25 13:34:44;;;;;;;1.87;0.70;;;11.30;64.30;;;;;;5020888;28;20531;-72
2024/02/25 13:37:30;;;;;;;1.60;0.80;;;11.20;64.80;;;;;;5016868;28;20672;-72
2024/02/25 13:40:17;;;;;;;1.83;0.83;;;11.20;63.50;;;;;;5020451;28;20459;-73
2024/02/25 13:43:03;;;;;;;1.53;0.70;;;11.30;63.10;;;;;;5019863;28;20466;-73
2024/02/25 13:45:51;;;;;;;2.10;0.60;;;11.40;66.60;;;;;;5015986;28;20460;-73
2024/02/25 13:48:38;;;;;;;1.50;0.70;;;11.40;61.00;;;;;;5020559;28;20476;-74
2024/02/25 13:51:23;;;;;;;1.40;0.67;;;11.40;63.20;;;;;;5022593;28;20440;-74
2024/02/25 13:54:09;;;;;;;1.63;0.80;;;11.50;61.60;;;;;;5024517;28;20410;-74
2024/02/25 13:56:55;;;;;;;1.40;0.60;;;11.50;57.50;;;;;;5023623;28;20505;-74
2024/02/25 13:59:41;;;;;;;1.67;0.70;;;11.40;49.90;;;;;;5023703;28;20440;-74
2024/02/25 14:02:28;;;;;;;1.57;0.70;;;11.30;44.00;;;;;;5024542;28;20522;-74
2024/02/25 14:05:14;;;;;;;1.60;0.73;;;11.40;46.70;;;;;;5024252;28;20953;-74
2024/02/25 14:08:01;;;;;;;2.27;0.80;;;11.70;41.10;;;;;;5023389;28;21061;-74
2024/02/25 14:10:46;;;;;;;3.87;0.77;;;12.00;40.80;;;;;;5022119;28;20961;-74
2024/02/25 14:13:32;;;;;;;1.57;0.77;;;12.60;45.00;;;;;;5022802;28;20970;-74
2024/02/25 14:16:18;;;;;;;1.50;0.70;;;13.30;46.20;;;;;;5020343;28;20467;-74
2024/02/25 14:19:05;;;;;;;1.70;0.80;;;14.10;37.10;;;;;;5022609;28;20476;-74
2024/02/25 14:21:51;;;;;;;2.30;0.73;;;14.90;31.10;;;;;;5022201;28;20796;-75
2024/02/25 14:24:37;;;;;;;1.70;0.70;;;15.40;23.80;;;;;;5023419;28;20804;-74
2024/02/25 14:27:22;;;;;;;2.70;0.67;;;15.90;17.40;;;;;;5022380;28;20889;-74
2024/02/25 14:30:09;;;;;;;1.80;0.60;;;16.30;13.20;;;;;;5022751;28;20441;-74
2024/02/25 14:32:55;;;;;;;2.10;0.90;;;17.10;14.40;;;;;;5021539;28;20567;-75
2024/02/25 14:35:42;;;;;;;2.03;0.70;;;17.40;12.70;;;;;;5019298;28;20429;-75